Time;durP1;ratioP1;P1;durP2;ratioP2;P2;SDS_P1;SDS_P2;PMS_P1;PMS_P2;Temp;Humidity;BMP_temperature;BMP_pressure;BME280_temperature;BME280_humidity;BME280_pressure;Samples;Min_cycle;Max_cycle;Signal;HPM_P1;HPM_P2
2022/04/22 00:01:35;;;;;;;7.42;5.00;;;;;;;16.84;83.63;100341.23;1771999;80;21272;-57
2022/04/22 00:04:03;;;;;;;7.12;5.05;;;;;;;16.57;86.05;100340.72;1773740;80;21567;-57
2022/04/22 00:06:32;;;;;;;7.28;4.87;;;;;;;16.60;87.28;100346.34;1791920;79;21049;-60
2022/04/22 00:09:01;;;;;;;7.10;4.70;;;;;;;16.58;87.96;100349.69;1791820;79;21002;-56
2022/04/22 00:11:29;;;;;;;5.87;4.80;;;;;;;16.58;88.10;100349.69;1792044;79;21085;-56
2022/04/22 00:14:03;;;;;;;5.28;4.12;;;;;;;16.55;88.05;100351.44;1791394;79;21061;-58
2022/04/22 00:16:31;;;;;;;;;;;;;;;16.56;88.32;100347.81;1794599;79;21329;-64
2022/04/22 00:18:59;;;;;;;6.45;5.17;;;;;;;16.57;88.30;100346.78;1791254;79;20199;-58
2022/04/22 00:21:26;;;;;;;7.50;5.37;;;;;;;16.48;88.98;100345.47;1792152;79;21092;-57
2022/04/22 00:23:55;;;;;;;7.35;5.55;;;;;;;16.43;89.52;100346.11;1791043;79;21118;-57
2022/04/22 00:26:24;;;;;;;6.28;4.70;;;;;;;16.39;91.04;100348.89;1791361;79;22005;-56
2022/04/22 00:28:52;;;;;;;6.50;4.40;;;;;;;15.52;100.00;100345.38;1791650;79;21147;-62
2022/04/22 00:31:20;;;;;;;6.47;5.22;;;;;;;15.44;100.00;100354.33;1792910;79;21374;-57
2022/04/22 00:33:47;;;;;;;5.83;4.70;;;;;;;15.49;100.00;100348.42;1791223;79;20998;-63
2022/04/22 00:36:16;;;;;;;5.85;4.90;;;;;;;15.53;100.00;100346.98;1792141;79;21554;-56
2022/04/22 00:38:45;;;;;;;6.37;5.25;;;;;;;15.54;100.00;100346.79;1792002;79;20997;-64
2022/04/22 00:41:14;;;;;;;9.10;5.12;;;;;;;15.49;100.00;100348.42;1790871;79;20978;-58
2022/04/22 00:43:44;;;;;;;7.15;5.47;;;;;;;15.53;100.00;100348.30;1791310;79;21342;-58
2022/04/22 00:46:11;;;;;;;8.05;5.62;;;;;;;15.55;100.00;100343.13;1769492;79;21309;-58
2022/04/22 00:48:39;;;;;;;7.28;5.15;;;;;;;15.52;100.00;100334.88;1792162;79;21033;-58
2022/04/22 00:51:09;;;;;;;6.53;5.00;;;;;;;15.92;100.00;100334.59;1767306;79;20998;-57
2022/04/22 00:53:39;;;;;;;9.45;5.62;;;;;;;16.19;98.32;100334.63;1791768;79;21547;-56
2022/04/22 00:56:08;;;;;;;6.20;4.95;;;;;;;16.29;96.25;100334.94;1792732;79;21616;-57
2022/04/22 00:58:39;;;;;;;8.03;5.40;;;;;;;16.38;94.46;100338.08;1792932;79;21036;-57
2022/04/22 01:01:06;;;;;;;7.22;4.97;;;;;;;15.83;97.96;100339.81;1792080;79;20943;-63
2022/04/22 01:03:34;;;;;;;7.83;5.95;;;;;;;15.54;100.00;100338.11;1791286;79;21287;-56
2022/04/22 01:11:37;;;;;;;6.37;4.65;;;;;;;15.51;100.00;100337.21;1784006;78;21312;-57
2022/04/22 01:14:06;;;;;;;6.10;5.05;;;;;;;15.56;100.00;100339.99;1784758;80;21473;-56
2022/04/22 01:16:34;;;;;;;6.55;5.12;;;;;;;15.41;100.00;100345.55;1784070;80;21026;-59
2022/04/22 01:19:01;;;;;;;7.97;5.60;;;;;;;15.57;100.00;100342.94;1782416;80;21211;-57
2022/04/22 01:21:30;;;;;;;5.70;4.42;;;;;;;15.47;100.00;100341.28;1784387;78;21097;-56
2022/04/22 01:23:57;;;;;;;6.42;5.00;;;;;;;15.65;100.00;100334.82;1784374;79;21066;-56
2022/04/22 01:26:27;;;;;;;7.92;5.15;;;;;;;15.75;100.00;100333.81;1759932;80;47012;-58
2022/04/22 01:28:54;;;;;;;6.87;5.42;;;;;;;15.63;100.00;100340.75;1784229;80;20987;-58
2022/04/22 01:31:22;;;;;;;6.87;5.67;;;;;;;15.83;100.00;100335.36;1783759;79;21433;-60
2022/04/22 01:33:51;;;;;;;7.00;4.70;;;;;;;15.79;100.00;100333.67;1783379;80;20947;-56
2022/04/22 01:36:18;;;;;;;6.72;5.10;;;;;;;15.62;100.00;100329.16;1784009;80;20927;-58
2022/04/22 01:38:47;;;;;;;7.00;4.92;;;;;;;15.41;100.00;100334.24;1783356;78;21484;-60
2022/04/22 01:41:14;;;;;;;7.17;4.75;;;;;;;15.42;100.00;100330.59;1784785;79;21514;-58
2022/04/22 01:43:43;;;;;;;7.20;4.97;;;;;;;15.46;100.00;100330.48;1784495;78;21025;-58
2022/04/22 01:46:12;;;;;;;7.05;4.92;;;;;;;15.19;100.00;100334.60;1784316;79;20928;-58
2022/04/22 01:48:41;;;;;;;8.58;4.83;;;;;;;15.44;100.00;100325.94;1782962;78;20982;-58
2022/04/22 01:51:09;;;;;;;6.58;4.92;;;;;;;15.40;100.00;100329.50;1772830;80;21668;-59
2022/04/22 01:53:38;;;;;;;7.25;5.37;;;;;;;15.45;100.00;100332.80;1784301;78;21492;-57
2022/04/22 01:56:05;;;;;;;6.90;4.55;;;;;;;15.53;100.00;100331.22;1784032;80;21212;-58
2022/04/22 01:58:34;;;;;;;6.62;5.62;;;;;;;15.40;100.00;100330.02;1784172;78;21651;-58
2022/04/22 02:01:02;;;;;;;6.58;4.55;;;;;;;15.40;100.00;100328.70;1782454;80;21384;-58
2022/04/22 02:03:32;;;;;;;7.00;4.95;;;;;;;15.36;100.00;100330.15;1783772;78;21029;-58
2022/04/22 02:06:02;;;;;;;7.10;5.30;;;;;;;15.25;100.00;100324.55;1783814;78;20984;-56
2022/04/22 02:08:31;;;;;;;6.55;4.85;;;;;;;15.23;100.00;100328.42;1784381;78;21088;-57
2022/04/22 02:10:58;;;;;;;6.30;4.35;;;;;;;15.29;100.00;100327.55;1782492;79;21266;-58
2022/04/22 02:13:25;;;;;;;9.38;5.08;;;;;;;15.34;100.00;100332.97;1784409;79;22415;-56
2022/04/22 02:15:54;;;;;;;8.33;5.17;;;;;;;15.20;100.00;100326.21;1782030;78;21544;-57
2022/04/22 02:18:22;;;;;;;5.95;4.12;;;;;;;15.40;100.00;100337.38;1785124;79;21717;-58
2022/04/22 02:20:50;;;;;;;6.12;4.10;;;;;;;15.17;100.00;100335.31;1783310;80;21535;-57
2022/04/22 02:23:19;;;;;;;6.40;5.22;;;;;;;15.08;100.00;100335.27;1783346;78;21148;-58
2022/04/22 02:25:48;;;;;;;6.47;4.78;;;;;;;15.24;100.00;100338.70;1783750;78;21025;-57
2022/04/22 02:28:34;;;;;;;5.95;4.17;;;;;;;15.29;100.00;100337.55;1783521;79;21057;-63
2022/04/22 02:31:08;;;;;;;8.35;5.10;;;;;;;15.25;100.00;100337.67;1782605;80;21117;-58
2022/04/22 02:33:37;;;;;;;5.97;4.28;;;;;;;15.39;100.00;100348.11;1783542;80;21277;-57
2022/04/22 02:36:06;;;;;;;6.00;4.58;;;;;;;15.33;100.00;100349.23;1782140;80;20970;-58
2022/04/22 02:38:34;;;;;;;7.50;4.95;;;;;;;15.50;100.00;100348.75;1782870;80;21387;-63
2022/04/22 02:46:34;;;;;;;5.95;4.58;;;;;;;15.43;100.00;100354.55;1783939;80;21760;-55
2022/04/22 02:49:01;;;;;;;6.17;5.15;;;;;;;15.93;100.00;100346.20;1784115;80;21033;-57
2022/04/22 02:51:30;;;;;;;6.72;5.40;;;;;;;16.07;100.00;100349.52;1782489;80;21057;-62
2022/04/22 02:53:58;;;;;;;6.78;5.25;;;;;;;16.01;100.00;100352.49;1782876;78;21842;-59
2022/04/22 02:56:26;;;;;;;6.42;4.53;;;;;;;15.98;100.00;100348.17;1782914;79;21105;-59
2022/04/22 02:58:55;;;;;;;6.75;4.87;;;;;;;16.05;100.00;100350.23;1782714;78;21987;-59
2022/04/22 03:01:22;;;;;;;8.13;6.12;;;;;;;16.07;100.00;100350.04;1782865;79;21124;-64
2022/04/22 03:03:50;;;;;;;7.17;5.28;;;;;;;16.02;100.00;100343.61;1782376;80;21077;-58
2022/04/22 03:06:18;;;;;;;6.67;5.15;;;;;;;16.15;99.37;100349.23;1779172;79;21102;-59
2022/04/22 03:08:47;;;;;;;6.42;4.78;;;;;;;15.97;100.00;100347.38;1777218;80;21523;-57
2022/04/22 03:11:21;;;;;;;6.78;4.55;;;;;;;15.75;100.00;100344.31;1778444;79;21421;-58
2022/04/22 03:13:45;;;;;;;8.28;5.25;;;;;;;15.85;100.00;100350.94;1777006;80;21057;-57
2022/04/22 03:16:13;;;;;;;7.00;5.42;;;;;;;15.83;100.00;100350.33;1778246;80;21092;-57
2022/04/22 03:18:41;;;;;;;6.50;5.08;;;;;;;15.90;100.00;100353.71;1777328;79;20967;-63
2022/04/22 03:21:10;;;;;;;8.13;5.40;;;;;;;15.92;100.00;100358.26;1753980;80;21569;-57
2022/04/22 03:23:38;;;;;;;7.20;4.60;;;;;;;16.18;99.28;100363.28;1777268;80;21267;-58
2022/04/22 03:26:07;;;;;;;5.62;4.50;;;;;;;16.13;99.11;100367.05;1778455;80;21328;-57
2022/04/22 03:28:34;;;;;;;6.85;5.25;;;;;;;16.28;97.76;100362.77;1777065;80;20987;-62
2022/04/22 03:31:03;;;;;;;7.30;5.20;;;;;;;16.17;98.73;100363.48;1777121;79;20994;-56
2022/04/22 03:33:30;;;;;;;8.18;5.28;;;;;;;16.38;97.56;100377.55;1777656;80;21059;-63
2022/04/22 03:35:59;;;;;;;6.03;4.80;;;;;;;16.39;97.56;100367.81;1777636;79;20920;-58
2022/04/22 03:38:31;;;;;;;8.85;5.25;;;;;;;16.52;95.80;100372.95;1778584;80;21055;-56
2022/04/22 03:40:56;;;;;;;8.38;5.55;;;;;;;16.58;94.80;100369.95;1777032;80;21015;-63
2022/04/22 03:43:25;;;;;;;8.13;5.72;;;;;;;16.60;94.37;100375.30;1777636;79;21123;-57
2022/04/22 03:45:53;;;;;;;6.77;5.27;;;;;;;16.63;94.06;100374.86;1776878;80;21480;-60
2022/04/22 03:48:20;;;;;;;8.80;6.60;;;;;;;16.65;93.65;100373.31;1778371;80;22624;-56
2022/04/22 03:50:48;;;;;;;7.23;6.10;;;;;;;16.50;95.04;100382.37;1777480;80;21498;-63
2022/04/22 03:53:17;;;;;;;7.87;5.95;;;;;;;16.71;93.60;100381.66;1777754;80;21233;-57
2022/04/22 03:55:44;;;;;;;8.08;5.62;;;;;;;16.73;92.88;100387.00;1777095;80;22200;-61
2022/04/22 03:58:12;;;;;;;7.20;6.00;;;;;;;16.78;92.18;100390.28;1778336;80;21367;-56
2022/04/22 04:00:48;;;;;;;7.53;4.77;;;;;;;16.63;93.43;100393.28;1778063;80;21681;-57
2022/04/22 04:03:19;;;;;;;8.33;6.03;;;;;;;16.73;92.79;100392.75;1757634;80;21312;-56
2022/04/22 04:05:49;;;;;;;8.40;5.73;;;;;;;16.74;92.35;100399.64;1779773;80;21054;-57
2022/04/22 04:08:20;;;;;;;6.42;5.35;;;;;;;16.85;91.36;100393.65;1784374;78;21338;-57
2022/04/22 04:16:21;;;;;;;6.50;5.50;;;;;;;17.17;87.10;100398.74;1783263;79;21276;-57
2022/04/22 04:18:49;;;;;;;6.63;5.23;;;;;;;16.40;98.77;100405.77;1784241;78;21203;-60
2022/04/22 04:24:03;;;;;;;5.77;4.30;;;;;;;16.49;100.00;100402.33;1782261;79;21069;-56
2022/04/22 04:26:33;;;;;;;6.60;4.97;;;;;;;16.67;100.00;100407.61;1783329;79;21974;-55
2022/04/22 04:29:02;;;;;;;7.67;5.60;;;;;;;16.67;100.00;100405.49;1782947;78;21599;-58
2022/04/22 04:31:31;;;;;;;7.20;5.23;;;;;;;16.81;100.00;100403.02;1783897;80;21812;-57
2022/04/22 04:33:59;;;;;;;6.73;4.73;;;;;;;16.81;100.00;100403.53;1783017;78;21306;-57
2022/04/22 04:36:28;;;;;;;8.83;5.00;;;;;;;17.01;100.00;100398.33;1784147;80;21337;-56
2022/04/22 04:38:55;;;;;;;6.73;4.97;;;;;;;17.16;98.73;100399.75;1782993;80;21254;-61
2022/04/22 04:41:23;;;;;;;7.17;5.47;;;;;;;17.03;99.04;100400.73;1783539;80;21259;-57
2022/04/22 04:43:51;;;;;;;7.03;5.23;;;;;;;16.86;100.00;100407.13;1782680;79;21249;-57
2022/04/22 04:46:20;;;;;;;5.60;4.17;;;;;;;16.87;100.00;100406.61;1783821;80;21300;-58
2022/04/22 04:48:47;;;;;;;5.50;4.00;;;;;;;16.92;98.18;100410.69;1782787;79;21306;-57
2022/04/22 04:51:16;;;;;;;5.13;4.53;;;;;;;16.53;100.00;100417.97;1783091;78;21321;-58
2022/04/22 04:53:44;;;;;;;7.33;5.10;;;;;;;16.38;100.00;100417.00;1782915;80;21155;-57
2022/04/22 04:56:13;;;;;;;6.10;4.50;;;;;;;16.50;100.00;100421.84;1782748;78;21650;-57
2022/04/22 04:58:41;;;;;;;6.07;4.57;;;;;;;16.41;100.00;100415.78;1784360;80;21174;-63
2022/04/22 05:01:10;;;;;;;5.30;4.07;;;;;;;16.37;100.00;100420.66;1771710;80;21260;-59
2022/04/22 05:03:38;;;;;;;6.33;4.70;;;;;;;16.44;100.00;100424.52;1782830;79;21343;-57
2022/04/22 05:06:06;;;;;;;7.60;4.37;;;;;;;16.45;100.00;100428.78;1784170;80;21421;-58
2022/04/22 05:08:34;;;;;;;6.40;4.43;;;;;;;16.60;100.00;100429.24;1783648;80;21050;-58
2022/04/22 05:11:01;;;;;;;7.13;3.93;;;;;;;16.59;100.00;100427.61;1782581;80;21373;-62
2022/04/22 05:13:30;;;;;;;8.10;4.50;;;;;;;16.72;100.00;100431.44;1783457;79;21210;-57
2022/04/22 05:15:58;;;;;;;6.33;4.73;;;;;;;16.89;99.98;100434.82;1782878;79;21229;-56
2022/04/22 05:18:26;;;;;;;5.93;4.50;;;;;;;16.86;99.85;100436.57;1784149;80;21152;-56
2022/04/22 05:20:54;;;;;;;6.37;4.33;;;;;;;16.63;100.00;100443.29;1782892;79;21850;-59
2022/04/22 05:23:22;;;;;;;6.43;4.47;;;;;;;16.54;100.00;100439.31;1783825;80;21307;-57
2022/04/22 05:25:49;;;;;;;9.27;5.43;;;;;;;16.74;100.00;100446.55;1780433;80;21807;-57
2022/04/22 05:28:17;;;;;;;7.10;5.13;;;;;;;16.79;100.00;100447.20;1752527;80;21486;-57
2022/04/22 05:33:33;;;;;;;7.43;5.67;;;;;;;16.72;100.00;100451.17;1782844;79;21116;-64
2022/04/22 05:36:01;;;;;;;10.20;5.70;;;;;;;16.69;100.00;100449.49;1783244;80;21382;-58
2022/04/22 05:38:28;;;;;;;6.77;4.83;;;;;;;16.36;100.00;100458.50;1783799;80;21371;-59
2022/04/22 05:40:57;;;;;;;7.33;5.43;;;;;;;16.24;100.00;100455.77;1783514;80;21269;-60
2022/04/22 05:43:24;;;;;;;7.40;5.47;;;;;;;16.26;100.00;100452.94;1782854;80;21336;-59
2022/04/22 05:45:52;;;;;;;6.83;4.90;;;;;;;16.75;100.00;100452.09;1783019;80;21121;-59
2022/04/22 05:48:19;;;;;;;8.43;5.00;;;;;;;16.99;100.00;100461.45;1783696;80;21196;-64
2022/04/22 05:50:48;;;;;;;5.40;4.43;;;;;;;16.69;100.00;100460.82;1782871;80;21272;-58
2022/04/22 05:53:16;;;;;;;7.23;5.00;;;;;;;16.50;100.00;100456.56;1783846;80;21347;-58
2022/04/22 05:55:45;;;;;;;7.40;5.30;;;;;;;16.38;100.00;100460.93;1782145;79;21897;-59
2022/04/22 05:58:13;;;;;;;6.80;4.53;;;;;;;16.46;100.00;100462.77;1783490;80;21331;-58
2022/04/22 06:00:42;;;;;;;5.50;4.57;;;;;;;16.70;100.00;100465.05;1782676;79;21350;-58
2022/04/22 06:03:11;;;;;;;7.00;5.40;;;;;;;16.97;100.00;100466.12;1761562;80;21703;-57
2022/04/22 06:05:40;;;;;;;6.77;4.80;;;;;;;17.01;100.00;100468.64;1782887;79;21769;-58
2022/04/22 06:10:56;;;;;;;5.60;4.50;;;;;;;17.29;100.00;100472.56;1783831;79;21303;-58
2022/04/22 06:13:23;;;;;;;7.17;4.57;;;;;;;17.27;100.00;100475.39;1783038;80;21283;-58
2022/04/22 06:15:50;;;;;;;6.63;5.10;;;;;;;17.35;100.00;100471.16;1783330;80;21279;-57
2022/04/22 06:18:18;;;;;;;5.90;4.40;;;;;;;17.41;100.00;100478.68;1783502;80;21354;-57
2022/04/22 06:20:48;;;;;;;5.60;4.40;;;;;;;17.27;100.00;100474.08;1783431;79;22693;-57
2022/04/22 06:23:15;;;;;;;5.53;4.43;;;;;;;17.29;100.00;100472.04;1782888;80;21361;-57
2022/04/22 06:25:47;;;;;;;6.57;5.03;;;;;;;17.42;100.00;100485.03;1782440;79;22179;-58
2022/04/22 06:28:15;;;;;;;6.20;4.80;;;;;;;17.44;100.00;100477.73;1782898;80;22470;-60
2022/04/22 06:30:43;;;;;;;6.07;4.57;;;;;;;17.55;100.00;100472.73;1783359;80;21318;-58
2022/04/22 06:33:13;;;;;;;7.33;5.10;;;;;;;17.71;100.00;100470.77;1782971;79;21332;-62
2022/04/22 06:35:42;;;;;;;6.57;4.90;;;;;;;17.82;100.00;100474.52;1783637;80;22435;-57
2022/04/22 06:38:09;;;;;;;6.03;4.70;;;;;;;17.87;100.00;100473.31;1760070;80;21519;-59
2022/04/22 06:46:12;;;;;;;7.07;4.70;;;;;;;19.26;100.00;100475.38;1783353;80;21657;-57
2022/04/22 06:48:43;;;;;;;5.03;4.40;;;;;;;20.05;98.92;100476.30;1783112;79;22143;-63
2022/04/22 06:51:13;;;;;;;5.70;4.73;;;;;;;20.52;95.72;100472.52;1771366;80;21589;-61
2022/04/22 06:53:41;;;;;;;5.53;3.50;;;;;;;20.70;92.37;100473.57;1783458;80;21467;-57
2022/04/22 06:56:08;;;;;;;5.47;4.07;;;;;;;20.93;85.09;100480.49;1760147;80;21240;-57
2022/04/22 06:58:37;;;;;;;5.63;3.90;;;;;;;21.18;79.60;100476.56;1783026;80;21124;-57
2022/04/22 07:01:07;;;;;;;7.50;4.40;;;;;;;21.21;74.18;100474.19;1783479;80;21807;-59
2022/04/22 07:06:28;;;;;;;5.83;3.93;;;;;;;17.99;100.00;100489.96;1803119;78;22894;-58
2022/04/22 07:08:56;;;;;;;5.10;4.00;;;;;;;22.06;83.57;100475.31;1774591;80;20955;-58
2022/04/22 07:11:27;;;;;;;4.40;3.60;;;;;;;22.45;66.91;100470.30;1772352;80;21040;-66
2022/04/22 07:13:59;;;;;;;5.78;4.10;;;;;;;22.44;64.83;100475.34;1783780;80;20979;-66
2022/04/22 07:16:26;;;;;;;5.93;4.43;;;;;;;22.20;63.46;100473.07;1782689;80;21145;-59
2022/04/22 07:18:55;;;;;;;5.23;4.47;;;;;;;22.01;62.32;100477.11;1783198;80;21025;-57
2022/04/22 07:21:24;;;;;;;5.63;4.80;;;;;;;21.83;60.28;100476.98;1782751;80;20988;-59
2022/04/22 07:23:53;;;;;;;5.90;4.10;;;;;;;21.81;59.83;100476.42;1771100;80;21531;-66
2022/04/22 07:26:21;;;;;;;5.50;3.63;;;;;;;21.50;60.36;100482.77;1783226;80;21418;-60
2022/04/22 07:28:50;;;;;;;5.63;3.83;;;;;;;21.49;61.11;100470.56;1783691;80;21049;-59
2022/04/22 07:31:19;;;;;;;5.47;3.87;;;;;;;21.45;60.59;100474.77;1783035;80;21042;-62
2022/04/22 07:33:49;;;;;;;5.70;3.83;;;;;;;21.49;64.17;100477.72;1782514;80;21047;-62
2022/04/22 07:36:17;;;;;;;4.67;3.77;;;;;;;21.75;66.17;100470.28;1782684;80;21556;-60
2022/04/22 07:38:45;;;;;;;5.07;4.10;;;;;;;21.98;61.39;100465.70;1782376;80;21326;-61
2022/04/22 07:41:18;;;;;;;7.57;3.50;;;;;;;22.12;60.09;100464.19;1783039;80;20915;-60
2022/04/22 07:46:46;;;;;;;4.95;3.17;;;;;;;22.35;58.93;100459.09;1783096;80;21326;-62
2022/04/22 07:49:14;;;;;;;5.70;2.93;;;;;;;22.77;55.17;100459.06;1783005;80;21300;-66
2022/04/22 07:51:43;;;;;;;5.20;3.00;;;;;;;23.32;55.05;100452.89;1781806;80;22156;-60
2022/04/22 07:54:15;;;;;;;4.60;2.53;;;;;;;23.04;54.42;100448.30;1783443;80;21604;-59
2022/04/22 07:56:43;;;;;;;3.30;2.03;;;;;;;23.70;52.35;100449.52;1782565;80;21027;-61
2022/04/22 07:59:11;;;;;;;3.23;1.93;;;;;;;23.92;50.00;100452.72;1782866;80;21038;-60
2022/04/22 08:01:39;;;;;;;2.70;1.93;;;;;;;24.26;49.00;100445.49;1783251;80;21165;-59
2022/04/22 08:04:09;;;;;;;3.77;2.17;;;;;;;24.69;46.49;100433.94;1783825;80;21002;-59
2022/04/22 08:06:37;;;;;;;3.17;1.70;;;;;;;25.26;44.75;100431.28;1770303;80;21054;-58
2022/04/22 08:09:05;;;;;;;3.60;1.60;;;;;;;25.79;41.51;100426.13;1769045;80;21065;-69
2022/04/22 08:11:35;;;;;;;2.70;1.73;;;;;;;25.94;41.09;100420.64;1769551;80;21500;-58
2022/04/22 08:14:03;;;;;;;2.60;1.47;;;;;;;26.30;39.86;100422.98;1770104;80;21149;-59
2022/04/22 08:16:33;;;;;;;2.77;1.67;;;;;;;26.58;38.90;100423.23;1769597;80;21118;-57
2022/04/22 08:19:01;;;;;;;2.70;1.80;;;;;;;26.79;37.99;100419.78;1769329;80;20960;-70
2022/04/22 08:21:33;;;;;;;3.17;2.17;;;;;;;26.79;37.33;100424.58;1769160;80;21475;-59
2022/04/22 08:23:57;;;;;;;3.90;2.33;;;;;;;26.81;36.82;100421.61;1769666;80;21130;-59
2022/04/22 08:26:26;;;;;;;3.40;2.10;;;;;;;26.82;36.10;100421.34;1769483;80;21575;-64
2022/04/22 08:28:55;;;;;;;3.27;1.80;;;;;;;26.79;36.54;100423.24;1768666;80;21524;-69
2022/04/22 08:31:22;;;;;;;3.67;1.60;;;;;;;26.52;35.10;100419.02;1769411;80;21484;-61
2022/04/22 08:33:55;;;;;;;5.50;3.47;;;;;;;25.89;33.85;100415.91;1757723;80;21102;-59
2022/04/22 08:36:21;;;;;;;5.73;4.00;;;;;;;25.20;36.19;100415.06;1769168;80;21039;-58
2022/04/22 08:38:50;;;;;;;6.77;3.00;;;;;;;25.09;36.10;100413.50;1757151;80;20936;-68
2022/04/22 08:41:17;;;;;;;3.40;2.20;;;;;;;24.98;35.80;100413.55;1769183;80;21459;-60
2022/04/22 08:43:45;;;;;;;3.90;2.00;;;;;;;24.68;37.14;100414.48;1769159;80;20960;-59
2022/04/22 08:51:47;;;;;;;3.10;1.70;;;;;;;24.79;37.30;100421.12;1769009;80;21262;-60
2022/04/22 08:54:14;;;;;;;2.57;1.40;;;;;;;25.26;35.62;100427.83;1723689;80;21565;-61
2022/04/22 08:56:42;;;;;;;2.47;1.60;;;;;;;25.75;34.54;100422.94;1768252;80;21070;-59
2022/04/22 08:59:11;;;;;;;2.77;1.50;;;;;;;25.87;33.43;100428.18;1769680;80;21367;-63
2022/04/22 09:01:39;;;;;;;2.47;1.80;;;;;;;25.53;33.67;100419.36;1769304;80;20972;-58
2022/04/22 09:04:08;;;;;;;2.97;1.47;;;;;;;25.07;35.23;100424.97;1769597;80;21111;-57
2022/04/22 09:06:37;;;;;;;2.97;1.63;;;;;;;24.59;36.01;100432.66;1774783;80;21478;-61
2022/04/22 09:09:06;;;;;;;3.00;1.53;;;;;;;24.25;36.78;100434.58;1778743;80;21614;-61
2022/04/22 09:11:40;;;;;;;2.17;1.23;;;;;;;24.28;36.71;100435.35;1778134;80;21034;-60
2022/04/22 09:14:09;;;;;;;2.33;1.40;;;;;;;24.29;36.50;100439.63;1777944;80;21008;-59
2022/04/22 09:16:37;;;;;;;3.43;1.70;;;;;;;24.23;36.50;100443.36;1777102;80;20936;-64
2022/04/22 09:19:06;;;;;;;3.37;1.50;;;;;;;24.23;36.08;100450.02;1777731;80;22395;-59
2022/04/22 09:21:34;;;;;;;2.83;1.43;;;;;;;24.26;35.82;100442.83;1777091;80;20963;-61
2022/04/22 09:24:18;;;;;;;2.57;1.47;;;;;;;24.38;36.54;100440.67;1777562;80;21007;-61
2022/04/22 09:26:42;;;;;;;2.50;1.40;;;;;;;24.64;35.15;100437.97;1776306;80;21094;-60
2022/04/22 09:29:10;;;;;;;2.47;1.57;;;;;;;24.96;35.39;100436.22;1777466;80;22206;-60
2022/04/22 09:31:49;;;;;;;3.00;1.77;;;;;;;25.29;34.78;100438.73;1747520;80;20948;-60
2022/04/22 09:34:34;;;;;;;2.97;1.90;;;;;;;25.45;34.34;100438.89;1777802;80;21050;-73
2022/04/22 09:42:54;;;;;;;3.30;1.98;;;;;;;24.86;34.53;100445.62;1748527;82;21211;-59
2022/04/22 09:45:22;;;;;;;2.87;1.83;;;;;;;24.13;35.18;100456.69;1710948;83;22182;-76
2022/04/22 09:47:57;;;;;;;3.73;1.80;;;;;;;23.78;35.87;100455.64;1765127;80;21952;-59
2022/04/22 09:50:44;;;;;;;3.60;1.90;;;;;;;23.74;35.92;100459.36;1777439;80;21521;-63
2022/04/22 09:53:12;;;;;;;3.13;1.70;;;;;;;23.65;36.74;100459.59;1777701;80;21042;-75
2022/04/22 09:55:48;;;;;;;3.00;1.90;;;;;;;23.68;36.42;100455.11;1777230;80;21536;-62
2022/04/22 09:58:23;;;;;;;3.20;1.73;;;;;;;23.67;36.56;100452.70;1777544;80;20924;-60
2022/04/22 10:01:01;;;;;;;2.67;1.60;;;;;;;23.52;37.21;100462.26;1765209;80;21006;-71
2022/04/22 10:03:28;;;;;;;3.27;2.23;;;;;;;23.77;36.83;100454.84;1775415;80;22206;-63
2022/04/22 10:05:57;;;;;;;3.40;1.85;;;;;;;24.15;37.03;100461.22;1774669;80;26879;-61
2022/04/22 10:08:25;;;;;;;3.17;2.20;;;;;;;24.48;36.21;100458.00;1768495;80;22495;-61
2022/04/22 10:10:57;;;;;;;4.27;2.17;;;;;;;24.45;35.84;100459.87;1769025;80;21490;-62
2022/04/22 10:13:28;;;;;;;3.60;2.17;;;;;;;24.32;36.38;100459.59;1768619;80;21098;-60
2022/04/22 10:15:55;;;;;;;3.77;1.90;;;;;;;24.14;36.88;100469.75;1755121;80;22020;-59
2022/04/22 10:18:23;;;;;;;3.33;2.00;;;;;;;23.69;37.33;100470.55;1768481;80;21078;-80
2022/04/22 10:20:50;;;;;;;2.77;1.73;;;;;;;23.60;36.92;100474.24;1757888;80;21470;-60
2022/04/22 10:23:20;;;;;;;3.23;2.03;;;;;;;23.47;37.04;100475.53;1768563;80;20987;-62
2022/04/22 10:25:48;;;;;;;4.00;2.40;;;;;;;23.31;37.70;100481.89;1768589;80;21047;-60
2022/04/22 10:28:16;;;;;;;3.57;2.40;;;;;;;23.22;37.58;100482.11;1767608;80;20955;-60
2022/04/22 10:30:43;;;;;;;3.67;2.23;;;;;;;23.13;38.13;100487.14;1768322;80;21146;-62
2022/04/22 10:33:10;;;;;;;3.23;2.07;;;;;;;23.04;38.16;100487.38;1767802;80;21275;-60
2022/04/22 10:35:44;;;;;;;3.27;1.77;;;;;;;22.76;38.02;100486.67;1768185;80;21495;-59
2022/04/22 10:38:38;;;;;;;3.33;1.80;;;;;;;22.50;38.16;100483.60;1769024;80;21007;-83
2022/04/22 10:41:16;;;;;;;3.67;2.23;;;;;;;22.49;38.16;100484.13;1769023;80;21046;-63
2022/04/22 10:43:43;;;;;;;3.37;1.97;;;;;;;22.45;38.20;100487.56;1768162;80;21111;-81
2022/04/22 10:49:13;;;;;;;2.60;1.63;;;;;;;22.40;38.41;100495.51;1770456;80;21209;-60
2022/04/22 10:52:10;;;;;;;3.72;2.02;;;;;;;22.33;38.40;100498.37;1768450;80;21054;-75
2022/04/22 10:54:52;;;;;;;;;;;;;;;22.16;38.24;100484.43;1770853;80;21309;-62
2022/04/22 10:57:29;;;;;;;2.60;1.90;;;;;;;22.12;38.28;100497.38;1768755;80;20411;-78
2022/04/22 11:00:11;;;;;;;3.60;2.13;;;;;;;21.98;38.21;100491.71;1758528;80;21503;-63
2022/04/22 11:02:42;;;;;;;3.50;2.40;;;;;;;21.91;38.56;100492.45;1767902;80;21067;-64
2022/04/22 11:05:23;;;;;;;5.10;3.20;;;;;;;21.83;38.81;100492.91;1767871;80;21091;-67
2022/04/22 11:07:56;;;;;;;4.90;3.10;;;;;;;21.77;39.19;100493.37;1762559;80;21559;-62
2022/04/22 11:10:53;;;;;;;7.33;4.10;;;;;;;21.70;39.80;100494.63;1777249;80;21662;-62
2022/04/22 11:13:41;;;;;;;5.70;4.10;;;;;;;21.65;40.00;100493.26;1770916;80;21220;-61
2022/04/22 11:16:26;;;;;;;7.10;4.60;;;;;;;21.24;40.70;100496.23;1777397;80;20952;-75
2022/04/22 11:19:24;;;;;;;5.77;4.87;;;;;;;21.18;41.08;100501.75;1777625;80;21054;-61
2022/04/22 11:21:57;;;;;;;6.33;4.03;;;;;;;21.30;41.38;100497.91;1777046;80;20995;-59
2022/04/22 11:24:33;;;;;;;6.53;4.90;;;;;;;20.97;41.87;100498.03;1777290;80;21157;-81
2022/04/22 11:27:10;;;;;;;6.03;4.13;;;;;;;20.42;42.46;100500.97;1777497;80;21463;-59
2022/04/22 11:29:39;;;;;;;5.53;4.10;;;;;;;20.51;42.59;100500.85;1776427;80;20963;-59
2022/04/22 11:32:22;;;;;;;5.33;3.57;;;;;;;20.79;42.60;100503.08;1776395;80;21053;-79
2022/04/22 11:35:09;;;;;;;5.70;3.80;;;;;;;20.78;42.64;100506.79;1777853;80;21134;-60
2022/04/22 11:37:38;;;;;;;8.40;4.00;;;;;;;20.83;42.52;100509.50;1777228;80;21023;-77
2022/04/22 11:40:08;;;;;;;7.27;4.40;;;;;;;20.82;42.55;100505.25;1777181;80;22563;-59
2022/04/22 11:42:43;;;;;;;5.83;4.30;;;;;;;20.75;42.79;100505.42;1776614;80;20987;-80
2022/04/22 11:45:13;;;;;;;5.43;4.03;;;;;;;20.68;43.28;100498.69;1777726;80;22063;-59
2022/04/22 11:47:42;;;;;;;6.42;4.53;;;;;;;20.89;43.25;100492.10;1776527;80;21006;-60
2022/04/22 11:50:12;;;;;;;5.97;4.70;;;;;;;20.98;43.12;100494.33;1777076;80;22045;-60
2022/04/22 11:52:40;;;;;;;5.42;3.92;;;;;;;21.16;43.12;100484.74;1776976;80;21900;-68
2022/04/22 11:55:09;;;;;;;4.63;3.03;;;;;;;21.36;43.57;100484.20;1777619;80;20975;-61
2022/04/22 11:57:39;;;;;;;4.77;3.40;;;;;;;21.51;44.23;100488.86;1776669;80;20995;-64
2022/04/22 12:05:51;;;;;;;6.63;4.03;;;;;;;21.96;45.51;100489.03;1777049;80;21576;-60
2022/04/22 12:08:19;;;;;;;5.40;3.43;;;;;;;21.88;46.61;100490.29;1777913;80;21327;-79
2022/04/22 12:10:48;;;;;;;6.57;4.00;;;;;;;21.74;45.48;100490.42;1776501;80;21583;-83
2022/04/22 12:13:16;;;;;;;6.30;3.67;;;;;;;21.68;47.14;100498.06;1777518;80;22144;-62
2022/04/22 12:15:48;;;;;;;7.27;4.27;;;;;;;21.79;47.71;100508.53;1777477;80;21018;-62
2022/04/22 12:18:34;;;;;;;4.73;3.50;;;;;;;21.84;47.72;100501.93;1777765;80;20939;-59
2022/04/22 12:21:05;;;;;;;5.30;3.37;;;;;;;21.85;48.21;100502.20;1777726;80;21487;-62
2022/04/22 12:23:34;;;;;;;5.33;3.58;;;;;;;22.03;48.69;100497.05;1777387;80;21473;-59
2022/04/22 12:26:02;;;;;;;4.97;3.67;;;;;;;22.34;48.85;100495.98;1777548;80;21062;-59
2022/04/22 12:28:31;;;;;;;5.90;3.93;;;;;;;22.32;49.07;100497.58;1777320;80;20943;-76
2022/04/22 12:30:58;;;;;;;5.80;3.70;;;;;;;22.54;48.44;100486.02;1777738;80;21331;-68